Time;durP1;ratioP1;P1;durP2;ratioP2;P2;SDS_P1;SDS_P2;PMS_P1;PMS_P2;Temp;Humidity;BMP_temperature;BMP_pressure;BME280_temperature;BME280_humidity;BME280_pressure;Samples;Min_cycle;Max_cycle;Signal;HPM_P1;HPM_P2
2023/06/06 00:01:27;;;;;;;14.32;7.20;;;;;;;12.87;82.01;101935.25;4964541;28;20113;-84
2023/06/06 00:03:52;;;;;;;13.45;6.75;;;;;;;12.80;81.96;101926.59;4954271;28;20535;-84
2023/06/06 00:06:37;;;;;;;12.40;6.43;;;;;;;12.81;80.72;101936.53;4951491;28;20031;-85
2023/06/06 00:09:22;;;;;;;21.55;8.07;;;;;;;12.72;82.54;101931.66;4952169;29;20082;-85
2023/06/06 00:11:48;;;;;;;14.20;6.80;;;;;;;12.73;81.62;101930.69;4934739;29;20039;-85
2023/06/06 00:14:18;;;;;;;16.50;7.18;;;;;;;12.69;82.16;101929.13;4951300;28;20039;-84
2023/06/06 00:16:49;;;;;;;14.18;6.60;;;;;;;12.63;82.64;101922.19;4934997;28;20474;-85
2023/06/06 00:19:15;;;;;;;14.13;7.70;;;;;;;12.62;82.96;101935.94;4950550;29;20042;-85
2023/06/06 00:21:41;;;;;;;12.45;6.93;;;;;;;12.54;82.83;101927.38;4934684;29;20074;-85
2023/06/06 00:24:07;;;;;;;12.48;7.10;;;;;;;12.51;83.48;101931.19;4965943;28;20044;-85
2023/06/06 00:26:33;;;;;;;14.90;6.72;;;;;;;12.56;81.87;101939.94;4950147;28;20062;-85
2023/06/06 00:29:17;;;;;;;13.82;7.10;;;;;;;12.58;81.23;101929.81;4951685;28;20035;-85
2023/06/06 00:31:42;;;;;;;13.15;6.78;;;;;;;12.52;82.42;101933.81;4955874;28;20031;-84
2023/06/06 00:34:08;;;;;;;15.95;7.78;;;;;;;12.48;83.32;101939.56;4959212;28;20043;-85
2023/06/06 00:36:33;;;;;;;14.57;7.05;;;;;;;12.44;82.74;101937.97;4968879;28;20049;-85
2023/06/06 00:39:17;;;;;;;13.60;6.50;;;;;;;12.39;82.59;101938.28;4965762;28;20031;-85
2023/06/06 00:41:43;;;;;;;13.85;7.20;;;;;;;12.33;82.56;101937.78;4968423;28;20298;-85
2023/06/06 00:44:26;;;;;;;17.05;9.30;;;;;;;12.34;82.90;101926.78;4954867;28;20102;-84
2023/06/06 00:47:12;;;;;;;17.40;7.65;;;;;;;12.28;84.14;101942.66;4951704;28;20054;-83
2023/06/06 00:49:37;;;;;;;14.63;7.60;;;;;;;12.23;84.34;101942.94;4951279;28;20101;-85
2023/06/06 00:52:04;;;;;;;17.98;7.72;;;;;;;12.18;84.46;101951.41;4966109;28;20035;-83
2023/06/06 00:57:18;;;;;;;14.02;7.45;;;;;;;12.10;84.38;101931.03;4969874;28;20177;-85
2023/06/06 01:02:48;;;;;;;14.73;6.63;;;;;;;12.00;84.65;101931.59;4957761;28;20049;-84
2023/06/06 01:05:16;;;;;;;18.02;7.80;;;;;;;12.00;85.31;101937.03;4969189;28;20038;-84
2023/06/06 01:07:43;;;;;;;15.77;7.85;;;;;;;11.96;85.50;101935.47;4963518;28;20057;-85
2023/06/06 01:10:09;;;;;;;15.57;7.63;;;;;;;11.93;85.40;101929.31;4933006;29;20127;-84
2023/06/06 01:13:01;;;;;;;12.40;7.38;;;;;;;11.84;85.88;101927.16;4948672;28;20078;-85
2023/06/06 01:15:42;;;;;;;18.35;7.20;;;;;;;11.82;85.96;101927.25;4951214;28;20042;-86
2023/06/06 01:18:09;;;;;;;13.40;7.60;;;;;;;11.71;85.67;101929.72;4950204;28;20042;-85
2023/06/06 01:20:35;;;;;;;13.98;7.10;;;;;;;11.64;86.83;101929.19;4949648;29;20399;-84
2023/06/06 01:23:20;;;;;;;17.17;7.60;;;;;;;11.64;85.97;101934.66;4949665;28;20141;-84
2023/06/06 01:26:05;;;;;;;13.15;6.97;;;;;;;11.64;85.94;101934.66;4964607;28;20461;-84
2023/06/06 01:28:49;;;;;;;16.25;7.65;;;;;;;11.60;86.76;101934.91;4964645;28;20097;-84
2023/06/06 01:31:21;;;;;;;13.98;7.13;;;;;;;11.60;86.20;101937.66;4970377;28;20114;-85
2023/06/06 01:33:55;;;;;;;14.90;7.72;;;;;;;11.50;86.62;101932.72;4947752;29;20047;-85
2023/06/06 01:36:33;;;;;;;14.23;7.35;;;;;;;11.46;86.48;101931.16;4949583;29;20329;-85
2023/06/06 01:39:17;;;;;;;16.13;6.88;;;;;;;11.43;87.30;101931.34;4948626;29;20047;-84
2023/06/06 01:41:45;;;;;;;12.57;7.38;;;;;;;11.36;87.24;101932.66;4956306;28;20054;-84
2023/06/06 01:44:15;;;;;;;20.65;7.13;;;;;;;11.34;86.88;101925.56;4968003;28;20642;-85
2023/06/06 01:47:00;;;;;;;13.80;6.93;;;;;;;11.33;87.59;101932.88;4965217;28;20045;-84
2023/06/06 01:49:27;;;;;;;14.35;6.95;;;;;;;11.24;88.04;101933.41;4964972;28;20517;-84
2023/06/06 01:52:11;;;;;;;14.57;7.32;;;;;;;11.19;87.79;101928.22;4950772;28;20030;-84
2023/06/06 01:54:40;;;;;;;14.82;7.70;;;;;;;11.15;88.17;101926.63;4950134;28;20402;-85
2023/06/06 01:57:07;;;;;;;12.65;7.50;;;;;;;11.12;88.33;101929.53;4964090;28;20442;-85
2023/06/06 02:02:17;;;;;;;16.38;7.57;;;;;;;11.03;87.89;101934.63;4962426;28;20069;-85
2023/06/06 02:04:43;;;;;;;11.88;6.15;;;;;;;11.01;88.81;101931.13;4969281;28;20106;-85
2023/06/06 02:07:27;;;;;;;14.10;7.45;;;;;;;10.98;88.10;101937.59;4951854;28;20173;-84
2023/06/06 02:09:54;;;;;;;15.98;7.35;;;;;;;10.91;89.35;101938.91;4951756;28;20117;-84
2023/06/06 02:12:19;;;;;;;11.18;6.43;;;;;;;10.87;89.17;101938.22;4939396;28;20515;-84
2023/06/06 02:15:05;;;;;;;15.23;7.93;;;;;;;10.86;88.90;101938.28;4941133;29;20047;-84
2023/06/06 02:17:30;;;;;;;17.15;7.30;;;;;;;10.80;90.18;101936.78;4948973;28;20027;-86
2023/06/06 02:19:56;;;;;;;15.25;7.05;;;;;;;10.76;90.19;101937.03;4951302;28;20044;-85
2023/06/06 02:22:22;;;;;;;16.45;7.38;;;;;;;10.71;89.84;101930.00;4955470;28;20047;-85
2023/06/06 02:24:49;;;;;;;13.07;7.78;;;;;;;10.72;90.45;101936.34;4952581;28;20181;-84
2023/06/06 02:27:34;;;;;;;15.88;7.40;;;;;;;10.72;90.05;101936.34;4951745;28;20047;-86
2023/06/06 02:30:03;;;;;;;15.48;7.43;;;;;;;10.67;89.36;101935.72;4971807;28;20482;-84
2023/06/06 02:32:30;;;;;;;13.15;7.22;;;;;;;10.61;90.44;101931.50;4946673;28;20041;-85
2023/06/06 02:35:16;;;;;;;16.45;7.13;;;;;;;10.64;90.01;101934.06;4952313;29;20135;-84
2023/06/06 02:37:41;;;;;;;11.40;6.22;;;;;;;10.57;90.33;101931.75;4951719;28;20424;-84
2023/06/06 02:40:10;;;;;;;13.65;7.15;;;;;;;10.54;90.96;101930.09;4953200;28;20042;-84
2023/06/06 02:42:38;;;;;;;13.27;7.40;;;;;;;10.50;90.46;101924.91;4952622;28;20498;-84
2023/06/06 02:45:06;;;;;;;14.68;6.85;;;;;;;10.53;90.97;101927.44;4952200;29;20122;-84
2023/06/06 02:47:32;;;;;;;14.93;6.85;;;;;;;10.50;90.56;101925.78;4956006;28;20027;-85
2023/06/06 02:50:16;;;;;;;16.45;7.28;;;;;;;10.49;90.41;101940.31;4952171;28;20086;-84
2023/06/06 02:53:21;;;;;;;14.68;7.70;;;;;;;10.48;90.13;101942.16;4965631;28;20391;-84
2023/06/06 02:55:46;;;;;;;17.45;8.43;;;;;;;10.43;91.43;101940.66;4969311;28;20494;-84
2023/06/06 02:58:28;;;;;;;20.50;7.22;;;;;;;10.35;90.79;101935.66;4954753;28;20158;-85
2023/06/06 03:00:55;;;;;;;13.68;6.75;;;;;;;10.32;91.03;101941.25;4965325;28;20058;-84
2023/06/06 03:03:40;;;;;;;15.07;7.18;;;;;;;10.31;91.26;101939.50;4954175;28;20031;-84
2023/06/06 03:06:06;;;;;;;10.90;6.55;;;;;;;10.28;90.91;101934.22;4980767;28;20101;-85
2023/06/06 03:08:38;;;;;;;14.25;6.88;;;;;;;10.30;90.66;101947.72;4955177;28;20031;-84
2023/06/06 03:11:04;;;;;;;15.13;7.00;;;;;;;10.28;90.71;101936.94;4954309;28;20035;-85
2023/06/06 03:13:29;;;;;;;14.48;7.10;;;;;;;10.29;90.27;101945.97;4970100;28;20034;-84
2023/06/06 03:15:56;;;;;;;14.98;6.70;;;;;;;10.23;91.26;101934.44;4942412;29;20183;-84
2023/06/06 03:18:23;;;;;;;14.15;7.32;;;;;;;10.22;91.13;101931.81;4948031;29;20035;-84
2023/06/06 03:20:57;;;;;;;14.00;7.57;;;;;;;10.19;92.05;101935.53;4951567;29;20027;-85
2023/06/06 03:23:26;;;;;;;14.70;7.50;;;;;;;10.19;90.83;101937.38;4951324;28;20047;-84
2023/06/06 03:26:11;;;;;;;13.73;7.57;;;;;;;10.21;90.40;101940.91;4951425;28;20515;-85
2023/06/06 03:28:36;;;;;;;14.52;7.10;;;;;;;10.21;90.03;101939.09;4950793;29;20051;-85
2023/06/06 03:31:05;;;;;;;13.85;7.45;;;;;;;10.20;91.17;101942.75;4950210;28;20042;-85
2023/06/06 03:33:37;;;;;;;12.60;6.45;;;;;;;10.20;90.60;101940.00;4952348;28;20030;-84
2023/06/06 03:36:21;;;;;;;19.45;8.57;;;;;;;10.19;90.60;101935.53;4971683;28;20117;-85
2023/06/06 03:38:48;;;;;;;14.20;6.68;;;;;;;10.17;91.29;101940.19;4970574;28;20030;-84
2023/06/06 03:41:14;;;;;;;14.13;7.47;;;;;;;10.13;91.55;101944.03;4967746;28;20034;-84
2023/06/06 03:43:43;;;;;;;15.13;7.75;;;;;;;10.11;91.80;101936.91;4950887;29;20027;-84
2023/06/06 03:46:09;;;;;;;14.73;7.80;;;;;;;10.07;91.98;101941.66;4949977;29;20546;-84
2023/06/06 03:48:35;;;;;;;17.00;8.00;;;;;;;9.99;92.83;101932.16;4967965;28;20113;-84
2023/06/06 03:51:00;;;;;;;12.52;7.40;;;;;;;9.95;92.84;101940.44;4954055;28;20023;-85
2023/06/06 03:53:45;;;;;;;15.90;7.93;;;;;;;9.97;91.96;101941.22;4961463;28;20134;-85
2023/06/06 03:56:10;;;;;;;16.73;7.82;;;;;;;9.99;92.99;101938.47;4966159;28;20035;-84
2023/06/06 03:58:36;;;;;;;17.92;7.60;;;;;;;9.95;93.09;101937.72;4950813;28;20046;-85
2023/06/06 04:01:02;;;;;;;17.92;7.90;;;;;;;9.89;93.27;101940.78;4941144;28;20443;-85
2023/06/06 04:03:29;;;;;;;15.93;7.63;;;;;;;9.92;93.20;101945.16;4954262;28;20138;-84
2023/06/06 04:06:14;;;;;;;20.27;8.07;;;;;;;9.94;93.25;101940.53;4950895;28;20247;-84
2023/06/06 04:08:40;;;;;;;19.70;7.30;;;;;;;9.92;93.67;101942.44;4951880;28;20396;-85
2023/06/06 04:11:05;;;;;;;19.25;7.28;;;;;;;9.91;92.75;101937.97;4949878;29;20109;-85
2023/06/06 04:16:15;;;;;;;14.52;7.03;;;;;;;9.99;93.02;101943.00;4965197;28;20062;-85
2023/06/06 04:18:40;;;;;;;14.13;7.30;;;;;;;10.02;92.79;101931.97;4967157;28;20113;-85
2023/06/06 04:21:06;;;;;;;16.30;7.68;;;;;;;10.02;93.06;101935.56;4952744;28;20046;-85
2023/06/06 04:23:31;;;;;;;12.50;7.38;;;;;;;10.04;92.93;101943.66;4953225;28;20069;-85
2023/06/06 04:25:57;;;;;;;13.98;6.85;;;;;;;10.11;93.23;101947.78;4952888;28;20038;-84
2023/06/06 04:31:07;;;;;;;13.38;7.15;;;;;;;10.16;93.38;101946.56;4964790;28;20078;-84
2023/06/06 04:33:34;;;;;;;13.60;6.38;;;;;;;10.17;92.56;101939.31;4949694;28;20459;-84
2023/06/06 04:36:00;;;;;;;11.35;6.55;;;;;;;10.20;92.22;101940.00;4969093;28;20050;-85
2023/06/06 04:38:29;;;;;;;11.75;6.93;;;;;;;10.21;92.69;101940.91;4952817;28;20030;-86
2023/06/06 04:40:54;;;;;;;15.35;6.82;;;;;;;10.26;92.51;101940.69;4952665;28;20493;-85
2023/06/06 04:43:23;;;;;;;14.52;7.05;;;;;;;10.30;92.71;101943.16;4955025;28;20034;-85
2023/06/06 04:45:50;;;;;;;12.18;7.30;;;;;;;10.29;92.86;101949.56;4953592;28;20039;-85
2023/06/06 04:48:18;;;;;;;15.98;7.43;;;;;;;10.32;92.66;101946.69;4948048;29;20025;-85
2023/06/06 04:50:46;;;;;;;11.20;6.72;;;;;;;10.41;91.65;101953.47;4964324;28;20412;-84
2023/06/06 04:53:31;;;;;;;15.07;8.13;;;;;;;10.45;92.50;101950.50;4949472;28;20027;-85
2023/06/06 04:59:05;;;;;;;14.57;7.32;;;;;;;10.51;92.15;101952.00;4951387;28;20507;-85
2023/06/06 05:01:36;;;;;;;15.48;7.05;;;;;;;10.53;91.27;101947.34;4956915;28;20047;-84
2023/06/06 05:04:05;;;;;;;16.73;7.88;;;;;;;10.55;91.80;101941.84;4968365;28;20034;-84
2023/06/06 05:06:31;;;;;;;14.82;7.78;;;;;;;10.64;91.71;101938.63;4970111;28;20023;-85
2023/06/06 05:08:59;;;;;;;16.52;7.13;;;;;;;10.68;91.71;101943.81;4968658;28;20093;-84
2023/06/06 05:11:25;;;;;;;17.60;8.50;;;;;;;10.75;91.34;101940.75;4963976;28;20035;-85
2023/06/06 05:13:50;;;;;;;15.05;7.97;;;;;;;10.80;91.24;101941.34;4985205;28;20130;-85
2023/06/06 05:19:19;;;;;;;16.83;7.18;;;;;;;10.93;90.19;101953.31;4960847;28;20039;-85
2023/06/06 05:22:22;;;;;;;14.13;7.35;;;;;;;10.93;89.61;101948.75;4968597;28;20153;-85
2023/06/06 05:24:47;;;;;;;14.15;7.72;;;;;;;10.99;90.12;101953.84;4968781;28;20069;-84
2023/06/06 05:27:13;;;;;;;14.52;7.03;;;;;;;11.04;89.84;101955.44;4961959;28;20443;-84
2023/06/06 05:29:57;;;;;;;13.40;6.85;;;;;;;11.08;89.15;101951.56;4951023;28;20037;-85
2023/06/06 05:32:23;;;;;;;16.65;8.48;;;;;;;11.14;89.62;101953.94;4964670;28;20113;-86
2023/06/06 05:34:49;;;;;;;15.35;8.07;;;;;;;11.16;89.81;101958.34;4966752;28;20442;-86
2023/06/06 05:37:14;;;;;;;14.80;8.02;;;;;;;11.18;88.40;101945.50;4949022;29;20039;-85
2023/06/06 05:39:40;;;;;;;14.10;7.88;;;;;;;11.27;88.43;101960.44;4965254;28;20472;-85
2023/06/06 05:42:05;;;;;;;15.60;8.48;;;;;;;11.31;88.47;101947.53;4959991;28;20034;-86
2023/06/06 05:44:31;;;;;;;13.77;7.50;;;;;;;11.33;88.26;101932.88;4946617;28;20023;-86
2023/06/06 05:46:56;;;;;;;19.52;7.68;;;;;;;11.40;88.08;101956.06;4959048;28;20422;-85
2023/06/06 05:49:22;;;;;;;16.05;8.18;;;;;;;11.42;88.12;101950.50;4960365;28;20504;-86
2023/06/06 05:51:48;;;;;;;15.75;7.43;;;;;;;11.53;88.11;101972.56;4941292;29;20043;-86
2023/06/06 05:54:14;;;;;;;16.38;7.47;;;;;;;11.55;88.19;101969.75;4966394;28;20042;-83
2023/06/06 05:56:40;;;;;;;16.08;8.10;;;;;;;11.56;87.86;101966.03;4953061;28;20066;-82
2023/06/06 05:59:05;;;;;;;15.77;7.53;;;;;;;11.60;86.82;101965.78;4939452;28;20035;-83
2023/06/06 06:01:31;;;;;;;17.77;8.55;;;;;;;11.60;87.45;101963.06;4951391;28;20039;-83
2023/06/06 06:03:57;;;;;;;14.05;8.00;;;;;;;11.69;87.53;101967.09;4969500;28;20487;-82
2023/06/06 06:06:23;;;;;;;17.45;8.07;;;;;;;11.74;85.93;101964.97;4948460;29;20027;-82
2023/06/06 06:08:49;;;;;;;14.90;8.18;;;;;;;11.76;86.62;101965.78;4950130;29;20505;-83
2023/06/06 06:11:15;;;;;;;17.73;8.43;;;;;;;11.87;86.95;101965.16;4949369;29;20435;-83
2023/06/06 06:13:40;;;;;;;13.63;7.75;;;;;;;11.99;86.62;101959.84;4953284;28;20124;-82
2023/06/06 06:16:06;;;;;;;15.90;7.88;;;;;;;12.02;86.46;101950.56;4971270;28;20515;-83
2023/06/06 06:18:31;;;;;;;16.63;7.78;;;;;;;12.06;86.11;101956.72;4954147;28;20024;-83
2023/06/06 06:20:57;;;;;;;16.52;7.85;;;;;;;12.05;84.78;101963.16;4966998;28;20047;-83
2023/06/06 06:23:25;;;;;;;15.20;7.63;;;;;;;12.08;85.33;101963.88;4951352;28;20490;-82
2023/06/06 06:25:51;;;;;;;14.50;7.68;;;;;;;12.15;85.50;101965.22;4949598;29;20035;-83
2023/06/06 06:28:21;;;;;;;18.63;7.88;;;;;;;12.23;85.01;101965.66;4933637;29;20551;-83
2023/06/06 06:30:46;;;;;;;16.52;8.27;;;;;;;12.31;85.00;101980.66;4938959;29;20038;-82
2023/06/06 06:33:12;;;;;;;16.90;7.70;;;;;;;12.32;84.43;101968.78;4961453;28;20252;-82
2023/06/06 06:35:37;;;;;;;21.13;7.97;;;;;;;12.34;84.34;101966.81;4968744;28;20054;-82
2023/06/06 06:38:03;;;;;;;15.25;8.15;;;;;;;12.42;85.23;101975.44;4957664;28;20037;-83
2023/06/06 06:41:05;;;;;;;14.43;7.68;;;;;;;12.57;84.13;101973.59;4967542;28;20045;-82
2023/06/06 06:43:31;;;;;;;18.75;8.15;;;;;;;12.63;83.89;101965.00;4963595;28;20047;-82
2023/06/06 06:46:23;;;;;;;13.88;7.35;;;;;;;12.71;83.74;101976.31;4965097;28;20023;-83
2023/06/06 06:48:50;;;;;;;15.85;8.02;;;;;;;12.71;83.38;101970.84;4954776;28;20027;-82
2023/06/06 06:51:16;;;;;;;13.88;7.35;;;;;;;12.75;84.14;101967.84;4959037;28;20458;-83
2023/06/06 06:53:42;;;;;;;17.27;8.15;;;;;;;12.89;82.70;101975.16;4968400;28;20035;-82
2023/06/06 06:56:45;;;;;;;17.40;8.27;;;;;;;13.01;82.98;101973.50;4964509;28;20042;-82
2023/06/06 06:59:10;;;;;;;17.55;8.05;;;;;;;13.05;82.38;101972.28;4965746;28;20391;-82
2023/06/06 07:01:39;;;;;;;14.48;7.88;;;;;;;13.14;81.70;101979.03;4976813;28;20051;-82
2023/06/06 07:04:23;;;;;;;22.55;8.27;;;;;;;13.19;81.77;101979.59;4964221;28;20093;-82
2023/06/06 07:06:48;;;;;;;16.33;8.13;;;;;;;13.22;80.96;101983.03;4953221;28;20559;-83
2023/06/06 07:09:32;;;;;;;16.92;8.13;;;;;;;13.29;81.45;101983.53;4954502;29;20042;-82
2023/06/06 07:12:17;;;;;;;17.30;7.85;;;;;;;13.40;81.71;101986.44;4973033;28;20355;-82
2023/06/06 07:14:42;;;;;;;19.67;7.95;;;;;;;13.48;81.09;101977.72;4971102;28;20505;-82
2023/06/06 07:17:07;;;;;;;17.42;8.43;;;;;;;13.55;80.76;101980.91;4953637;28;20031;-82
2023/06/06 07:19:33;;;;;;;13.40;7.82;;;;;;;13.61;79.78;101973.16;4965539;28;20046;-82
2023/06/06 07:21:59;;;;;;;16.70;7.22;;;;;;;13.82;79.35;101976.31;4967626;28;20447;-81
2023/06/06 07:24:24;;;;;;;20.73;8.02;;;;;;;13.89;80.12;101971.31;4968325;28;20027;-82
2023/06/06 07:26:54;;;;;;;15.23;8.13;;;;;;;13.93;78.61;101967.38;4936938;29;20086;-83
2023/06/06 07:29:21;;;;;;;15.77;8.10;;;;;;;13.95;80.15;101966.31;4953402;29;20117;-81
2023/06/06 07:31:46;;;;;;;19.23;8.52;;;;;;;13.98;78.85;101967.94;4962658;28;20459;-83
2023/06/06 07:34:32;;;;;;;14.85;8.15;;;;;;;14.03;78.81;101979.44;4967804;28;20051;-82
2023/06/06 07:36:59;;;;;;;15.50;8.60;;;;;;;14.02;78.47;101966.75;4953436;28;20116;-83
2023/06/06 07:39:24;;;;;;;12.65;8.00;;;;;;;14.12;79.27;101967.84;4951930;29;20050;-82
2023/06/06 07:41:50;;;;;;;15.13;7.85;;;;;;;14.22;78.31;101957.13;4962438;28;20466;-83
2023/06/06 07:44:16;;;;;;;14.10;8.27;;;;;;;14.22;77.55;101946.19;4951993;29;20042;-82
2023/06/06 07:47:00;;;;;;;17.60;7.72;;;;;;;14.38;77.20;101959.69;4953115;28;20407;-82
2023/06/06 07:49:25;;;;;;;20.02;8.38;;;;;;;14.36;77.36;101954.34;4953904;28;20126;-82
2023/06/06 07:54:35;;;;;;;16.58;7.90;;;;;;;14.58;76.25;101961.03;4970095;28;20042;-82
2023/06/06 07:59:44;;;;;;;15.80;7.78;;;;;;;14.82;77.83;101952.91;4972561;28;20403;-83
2023/06/06 08:02:10;;;;;;;17.15;7.68;;;;;;;14.86;76.65;101952.59;4959653;28;20035;-83
2023/06/06 08:04:36;;;;;;;14.18;7.30;;;;;;;15.10;77.04;101955.38;4952154;29;20126;-82
2023/06/06 08:07:03;;;;;;;14.40;8.00;;;;;;;15.38;74.63;101943.22;4955914;28;20585;-82
2023/06/06 08:09:30;;;;;;;14.60;7.13;;;;;;;15.98;74.99;101944.19;4951324;29;20395;-84
2023/06/06 08:11:56;;;;;;;17.08;8.27;;;;;;;16.43;70.34;101941.56;4962796;28;20035;-83
2023/06/06 08:14:21;;;;;;;10.82;7.05;;;;;;;16.81;70.64;101944.88;4967131;28;20048;-82
2023/06/06 08:17:06;;;;;;;12.45;7.45;;;;;;;17.24;70.01;101948.72;4955016;28;20030;-83
2023/06/06 08:19:32;;;;;;;13.18;7.43;;;;;;;17.65;67.52;101949.88;4972506;28;20046;-82
2023/06/06 08:21:57;;;;;;;12.48;7.45;;;;;;;17.77;64.58;101949.75;4971020;28;20047;-83
2023/06/06 08:24:23;;;;;;;15.27;7.43;;;;;;;18.20;66.09;101950.69;4931123;29;20499;-82
2023/06/06 08:26:48;;;;;;;13.90;7.05;;;;;;;18.55;65.72;101955.84;4938660;29;20109;-83
2023/06/06 08:29:14;;;;;;;10.95;7.65;;;;;;;19.11;63.48;101938.88;4951240;29;20468;-83
2023/06/06 08:31:40;;;;;;;12.07;7.45;;;;;;;19.39;62.39;101926.16;4950389;28;20079;-83
2023/06/06 08:34:06;;;;;;;14.10;7.70;;;;;;;19.78;60.54;101948.34;4934959;29;20036;-83
2023/06/06 08:36:32;;;;;;;10.55;7.07;;;;;;;20.00;59.88;101937.00;4935042;29;20043;-82
2023/06/06 08:38:58;;;;;;;12.68;7.60;;;;;;;19.83;57.25;101946.03;4935874;29;20142;-83
2023/06/06 08:41:51;;;;;;;12.50;7.20;;;;;;;19.87;59.28;101942.84;4935940;29;20058;-82
2023/06/06 08:44:19;;;;;;;10.95;6.93;;;;;;;20.17;60.33;101946.44;4934416;29;20500;-82
2023/06/06 08:49:49;;;;;;;11.40;7.05;;;;;;;20.63;57.75;101942.03;4936324;29;20433;-82
2023/06/06 08:52:16;;;;;;;11.70;7.00;;;;;;;20.85;57.91;101935.28;4939828;29;20039;-83
2023/06/06 08:54:44;;;;;;;13.88;7.70;;;;;;;20.37;55.46;101944.53;4936059;29;20048;-83
2023/06/06 08:57:11;;;;;;;15.60;7.95;;;;;;;20.28;57.85;101937.13;4938807;29;20047;-83
2023/06/06 09:02:25;;;;;;;13.40;7.75;;;;;;;21.35;53.87;101934.88;4947287;29;20751;-83
2023/06/06 09:04:51;;;;;;;11.73;7.00;;;;;;;21.45;55.69;101927.41;4935260;29;20035;-82
2023/06/06 09:07:18;;;;;;;15.40;8.05;;;;;;;21.34;52.99;101942.34;4918041;29;20142;-82
2023/06/06 09:09:47;;;;;;;11.15;7.07;;;;;;;21.73;55.63;101925.47;4933143;29;20036;-83
2023/06/06 09:12:13;;;;;;;15.05;7.68;;;;;;;22.34;54.66;101934.88;4938935;29;20462;-83
2023/06/06 09:14:38;;;;;;;14.52;7.53;;;;;;;22.67;54.04;101934.06;4952719;29;20484;-81
2023/06/06 09:17:04;;;;;;;14.95;6.75;;;;;;;23.21;53.13;101932.97;4950096;29;20049;-82
2023/06/06 09:19:31;;;;;;;16.65;7.47;;;;;;;23.31;50.77;101942.03;4935744;29;20155;-81
2023/06/06 09:22:05;;;;;;;18.15;7.57;;;;;;;23.07;49.73;101932.56;4949739;29;20039;-82
2023/06/06 09:27:30;;;;;;;12.27;7.20;;;;;;;23.36;51.20;101940.50;4972564;28;20105;-83
2023/06/06 09:29:55;;;;;;;12.18;6.82;;;;;;;23.17;48.25;101932.44;4972824;28;20101;-82
2023/06/06 09:32:30;;;;;;;11.00;7.32;;;;;;;22.70;49.69;101923.66;4967141;28;20031;-83
2023/06/06 09:35:03;;;;;;;14.00;7.38;;;;;;;22.50;52.22;101917.47;4972110;28;20522;-82
2023/06/06 09:37:28;;;;;;;12.25;6.63;;;;;;;22.58;50.05;101925.84;4971572;28;20046;-82
2023/06/06 09:40:14;;;;;;;19.63;8.48;;;;;;;22.66;51.87;101912.91;4971503;28;20482;-82
2023/06/06 09:45:26;;;;;;;11.10;6.78;;;;;;;23.26;49.38;101909.22;4952549;28;20038;-83
2023/06/06 09:47:51;;;;;;;16.70;7.05;;;;;;;23.57;50.86;101912.25;4960472;28;20034;-82
2023/06/06 09:50:18;;;;;;;10.73;6.70;;;;;;;24.09;51.63;101909.22;4972002;28;20097;-83
2023/06/06 09:52:44;;;;;;;11.90;6.18;;;;;;;24.40;50.16;101903.84;4940048;29;20047;-83
2023/06/06 09:55:12;;;;;;;11.02;7.65;;;;;;;23.91;46.39;101920.50;4952320;28;20483;-82
2023/06/06 09:57:39;;;;;;;13.80;6.50;;;;;;;23.81;48.43;101910.59;4953451;28;20047;-82
2023/06/06 10:00:09;;;;;;;13.75;7.07;;;;;;;23.77;47.35;101912.84;4967533;28;20034;-81
2023/06/06 10:03:06;;;;;;;9.73;6.22;;;;;;;23.95;49.34;101904.34;4952461;28;20066;-83
2023/06/06 10:05:32;;;;;;;12.88;7.18;;;;;;;23.60;47.17;101905.50;4952822;28;20149;-83
2023/06/06 10:10:49;;;;;;;9.65;6.13;;;;;;;23.80;49.42;101908.88;4953068;29;20043;-81
2023/06/06 10:13:15;;;;;;;11.75;6.68;;;;;;;24.28;50.15;101899.66;4952177;29;20115;-83
2023/06/06 10:15:41;;;;;;;10.95;7.25;;;;;;;24.25;48.37;101897.22;4965403;28;20051;-82
2023/06/06 10:18:33;;;;;;;13.73;6.88;;;;;;;24.59;45.79;101885.91;4954014;28;20475;-83
2023/06/06 10:21:01;;;;;;;12.98;7.65;;;;;;;24.90;46.05;101899.91;4934817;29;20039;-82
2023/06/06 10:23:27;;;;;;;16.40;7.35;;;;;;;25.01;45.22;101892.19;4950741;28;20050;-82
2023/06/06 10:25:55;;;;;;;11.57;6.68;;;;;;;24.91;45.17;101887.72;4951663;29;20075;-82
2023/06/06 10:28:30;;;;;;;9.75;6.20;;;;;;;24.56;45.37;101899.28;4952106;28;20027;-83
2023/06/06 10:31:29;;;;;;;11.35;7.30;;;;;;;24.60;46.51;101893.19;4952661;28;20487;-83
2023/06/06 10:34:00;;;;;;;11.52;6.75;;;;;;;24.28;44.70;101902.44;4957504;28;20045;-83
2023/06/06 10:36:25;;;;;;;11.75;6.72;;;;;;;24.57;46.41;101884.31;4990203;28;20077;-84
2023/06/06 10:39:19;;;;;;;10.48;6.60;;;;;;;24.71;47.00;101893.84;4973004;28;20501;-84
2023/06/06 10:41:51;;;;;;;9.00;5.88;;;;;;;25.42;48.11;101882.63;4958576;28;20039;-83
2023/06/06 10:47:44;;;;;;;9.35;6.28;;;;;;;25.49;45.38;101893.00;4954688;28;20051;-83
2023/06/06 10:50:12;;;;;;;11.55;6.35;;;;;;;25.36;44.34;101891.69;4937930;29;20058;-83
2023/06/06 10:52:54;;;;;;;11.07;6.22;;;;;;;25.40;45.40;101898.63;4937631;29;20042;-82
2023/06/06 10:55:22;;;;;;;8.93;6.45;;;;;;;25.15;42.51;101891.47;4971060;28;20039;-80
2023/06/06 10:57:55;;;;;;;11.82;6.68;;;;;;;24.77;42.43;101890.38;4973796;28;20057;-80
2023/06/06 11:00:23;;;;;;;13.43;6.68;;;;;;;24.72;44.27;101885.34;4972851;28;20080;-80
2023/06/06 11:05:51;;;;;;;7.47;5.45;;;;;;;26.22;44.46;101872.09;4973921;28;20069;-81
2023/06/06 11:08:17;;;;;;;7.20;5.43;;;;;;;26.35;43.74;101877.91;4968987;28;20039;-80
2023/06/06 11:10:46;;;;;;;9.43;5.80;;;;;;;26.62;42.40;101881.97;4954390;28;20039;-80
2023/06/06 11:13:25;;;;;;;11.38;5.78;;;;;;;26.40;42.99;101872.59;4973730;28;20030;-79
2023/06/06 11:15:57;;;;;;;9.60;5.80;;;;;;;26.28;41.38;101871.31;4989081;28;20174;-80
2023/06/06 11:18:41;;;;;;;15.50;5.53;;;;;;;26.43;44.40;101859.16;4956923;28;20050;-82
2023/06/06 11:21:25;;;;;;;12.50;5.85;;;;;;;26.81;42.70;101864.66;4954844;29;20514;-81
2023/06/06 11:24:10;;;;;;;9.98;5.95;;;;;;;27.02;44.43;101871.38;4953849;28;20066;-81
2023/06/06 11:26:38;;;;;;;9.45;5.38;;;;;;;27.38;43.19;101860.28;4955849;28;20030;-80
2023/06/06 11:29:05;;;;;;;8.65;5.60;;;;;;;27.78;41.63;101855.97;4973324;28;20113;-81
2023/06/06 11:31:32;;;;;;;11.52;6.07;;;;;;;28.22;40.81;101857.69;4951872;29;20050;-81
2023/06/06 11:34:13;;;;;;;12.73;6.03;;;;;;;28.54;40.87;101864.63;4971037;28;20035;-80
2023/06/06 11:36:44;;;;;;;9.20;4.90;;;;;;;28.32;41.84;101860.13;4973741;28;20051;-81
2023/06/06 11:39:29;;;;;;;10.02;5.72;;;;;;;28.34;42.25;101856.06;4971199;28;20099;-81
2023/06/06 11:42:17;;;;;;;13.98;7.13;;;;;;;28.22;40.74;101857.69;4972909;28;20074;-80
2023/06/06 11:44:43;;;;;;;8.60;5.88;;;;;;;28.09;39.19;101858.44;4958386;28;20293;-80
2023/06/06 11:47:08;;;;;;;11.77;6.35;;;;;;;27.64;38.03;101857.75;4952130;28;20086;-81
2023/06/06 11:49:45;;;;;;;6.78;4.75;;;;;;;27.87;42.91;101848.31;4954335;28;20039;-79
2023/06/06 11:52:10;;;;;;;7.80;5.20;;;;;;;28.27;42.91;101843.94;4953115;28;20041;-80
2023/06/06 11:54:37;;;;;;;11.55;5.45;;;;;;;28.02;38.14;101843.50;4935326;29;20034;-81
2023/06/06 11:57:03;;;;;;;12.38;5.45;;;;;;;27.83;36.93;101850.66;4963286;28;20045;-81
2023/06/06 11:59:29;;;;;;;11.00;5.15;;;;;;;28.15;43.01;101838.03;4972859;28;20073;-81
2023/06/06 12:01:58;;;;;;;9.80;5.63;;;;;;;28.20;36.46;101846.69;4968273;28;20019;-80
2023/06/06 12:04:24;;;;;;;11.60;5.75;;;;;;;27.94;37.21;101843.69;4971129;28;20027;-81
2023/06/06 12:06:52;;;;;;;10.02;5.45;;;;;;;27.73;38.75;101847.34;4962992;28;20035;-82
2023/06/06 12:09:19;;;;;;;12.75;5.25;;;;;;;27.84;39.22;101838.44;4970683;28;20090;-81
2023/06/06 12:11:55;;;;;;;6.78;4.28;;;;;;;28.45;39.50;101841.53;4970817;28;20035;-81
2023/06/06 12:14:22;;;;;;;8.35;5.10;;;;;;;28.83;37.24;101841.09;4961789;28;20039;-81
2023/06/06 12:16:48;;;;;;;8.75;4.80;;;;;;;29.06;39.22;101839.94;4967658;28;20507;-81
2023/06/06 12:19:15;;;;;;;15.95;5.20;;;;;;;29.41;36.98;101838.75;4968463;28;20490;-79
2023/06/06 12:21:48;;;;;;;7.82;5.10;;;;;;;29.05;36.57;101835.41;4967193;28;20487;-80